createdAt,value
2022-08-18T00:01:44.836Z,100479.31
2022-08-18T00:04:24.303Z,100473.66
2022-08-18T00:07:00.560Z,100470.03
2022-08-18T00:09:31.982Z,100476.13
2022-08-18T00:12:08.921Z,100474.09
2022-08-18T00:14:36.547Z,100478.56
2022-08-18T00:17:03.934Z,100479.78
2022-08-18T00:19:46.182Z,100474.16
2022-08-18T00:22:20.652Z,100470.13
2022-08-18T00:24:54.523Z,100482.66
2022-08-18T00:27:31.470Z,100472.13
2022-08-18T00:30:05.353Z,100465.28
2022-08-18T00:32:51.128Z,100464.91
2022-08-18T00:35:34.940Z,100463.28
2022-08-18T00:38:08.492Z,100461.66
2022-08-18T00:40:54.454Z,100464.50
2022-08-18T00:43:43.310Z,100461.66
2022-08-18T00:46:29.104Z,100456.03
2022-08-18T00:48:58.043Z,100455.22
2022-08-18T00:51:48.328Z,100453.63
2022-08-18T00:54:27.482Z,100460.47
2022-08-18T00:57:06.330Z,100455.63
2022-08-18T00:59:45.582Z,100447.56
2022-08-18T01:02:46.780Z,100447.59
2022-08-18T01:05:30.597Z,100451.22
2022-08-18T01:07:58.072Z,100446.34
2022-08-18T01:10:25.376Z,100443.53
2022-08-18T01:12:59.425Z,100445.16
2022-08-18T01:15:30.496Z,100448.38
2022-08-18T01:18:28.261Z,100455.66
2022-08-18T01:21:35.104Z,100452.41
2022-08-18T01:24:10.382Z,100454.44
2022-08-18T01:26:46.582Z,100462.50
2022-08-18T01:29:18.671Z,100456.06
2022-08-18T01:31:56.504Z,100448.78
2022-08-18T01:34:28.563Z,100456.06
2022-08-18T01:36:57.452Z,100459.31
2022-08-18T01:41:23.093Z,100446.03
2022-08-18T01:42:18.086Z,100454.88
2022-08-18T01:44:51.239Z,100453.28
2022-08-18T01:47:21.028Z,100446.84
2022-08-18T01:49:48.338Z,100444.44
2022-08-18T01:52:21.250Z,100445.25
2022-08-18T01:54:51.619Z,100445.25
2022-08-18T01:57:22.238Z,100442.44
2022-08-18T01:59:49.603Z,100443.66
2022-08-18T02:02:28.222Z,100438.41
2022-08-18T02:05:04.905Z,100438.81
2022-08-18T02:07:36.195Z,100429.53
2022-08-18T02:10:11.743Z,100419.88
2022-08-18T02:12:41.847Z,100420.69
2022-08-18T02:15:10.698Z,100421.84
2022-08-18T02:17:42.917Z,100411.00
2022-08-18T02:20:18.004Z,100420.25
2022-08-18T02:22:47.991Z,100414.63
2022-08-18T02:25:18.206Z,100414.22
2022-08-18T02:27:46.813Z,100415.44
2022-08-18T02:30:19.465Z,100419.84
2022-08-18T02:32:46.823Z,100423.06
2022-08-18T02:35:14.479Z,100419.06
2022-08-18T02:37:43.472Z,100414.63
2022-08-18T02:40:14.787Z,100419.06
2022-08-18T02:42:47.335Z,100419.03
2022-08-18T02:45:15.102Z,100414.22
2022-08-18T02:47:44.317Z,100416.25
2022-08-18T02:50:14.187Z,100417.44
2022-08-18T02:52:41.529Z,100417.84
2022-08-18T02:55:10.667Z,100410.19
2022-08-18T02:57:46.001Z,100415.00
2022-08-18T03:00:19.193Z,100403.72
2022-08-18T03:02:51.628Z,100400.91
2022-08-18T03:05:20.388Z,100406.13
2022-08-18T03:07:47.611Z,100408.16
2022-08-18T03:10:33.224Z,100398.91
2022-08-18T03:13:01.658Z,100411.34
2022-08-18T03:15:28.833Z,100413.75
2022-08-18T03:17:56.324Z,100425.00
2022-08-18T03:20:30.144Z,100414.94
2022-08-18T03:23:05.838Z,100425.78
2022-08-18T03:25:44.344Z,100420.91
2022-08-18T03:28:11.588Z,100426.09
2022-08-18T03:30:38.833Z,100428.13
2022-08-18T03:33:05.942Z,100417.25
2022-08-18T03:35:37.117Z,100423.25
2022-08-18T03:38:05.623Z,100423.25
2022-08-18T03:40:33.466Z,100423.25
2022-08-18T03:43:49.525Z,100434.50
2022-08-18T03:45:54.895Z,100428.84
2022-08-18T03:48:22.376Z,100437.66
2022-08-18T03:50:49.631Z,100435.63
2022-08-18T03:53:16.643Z,100437.25
2022-08-18T03:55:43.789Z,100434.44
2022-08-18T03:58:14.963Z,100436.44
2022-08-18T04:00:42.448Z,100435.22
2022-08-18T04:03:09.802Z,100440.44
2022-08-18T04:05:41.233Z,100440.41
2022-08-18T04:08:08.469Z,100443.59
2022-08-18T04:10:35.753Z,100443.16
2022-08-18T04:13:05.649Z,100449.19
2022-08-18T04:15:33.825Z,100451.66
2022-08-18T04:18:08.670Z,100456.88
2022-08-18T04:20:36.289Z,100451.63
2022-08-18T04:23:03.409Z,100454.84
2022-08-18T04:25:33.468Z,100453.25
2022-08-18T04:28:02.473Z,100448.41
2022-08-18T04:30:29.501Z,100456.09
2022-08-18T04:32:56.700Z,100446.06
2022-08-18T04:35:24.370Z,100453.31
2022-08-18T04:37:51.749Z,100445.69
2022-08-18T04:40:22.932Z,100454.59
2022-08-18T04:42:52.150Z,100452.22
2022-08-18T04:45:19.196Z,100449.81
2022-08-18T04:47:46.270Z,100459.88
2022-08-18T04:50:13.356Z,100454.22
2022-08-18T04:52:59.028Z,100459.44
2022-08-18T04:55:26.085Z,100459.47
2022-08-18T04:57:53.301Z,100462.72
2022-08-18T05:00:20.864Z,100473.22
2022-08-18T05:02:49.444Z,100465.66
2022-08-18T05:05:16.585Z,100470.91
2022-08-18T05:07:47.668Z,100470.13
2022-08-18T05:10:17.958Z,100470.16
2022-08-18T05:12:48.840Z,100470.16
2022-08-18T05:15:17.762Z,100463.72
2022-08-18T05:17:45.483Z,100463.34
2022-08-18T05:20:17.510Z,100466.97
2022-08-18T05:22:45.641Z,100466.97
2022-08-18T05:25:13.557Z,100471.00
2022-08-18T05:27:43.947Z,100473.44
2022-08-18T05:30:12.110Z,100462.13
2022-08-18T05:32:50.080Z,100470.22
2022-08-18T05:35:43.790Z,100470.22
2022-08-18T05:39:04.727Z,100471.84
2022-08-18T05:44:15.537Z,100470.66
2022-08-18T05:46:56.209Z,100471.03
2022-08-18T05:49:27.634Z,100480.69
2022-08-18T05:52:07.786Z,100475.88
2022-08-18T05:55:10.051Z,100470.19
2022-08-18T05:58:01.998Z,100475.81
2022-08-18T06:00:33.030Z,100481.06
2022-08-18T06:03:23.324Z,100478.59
2022-08-18T06:06:07.660Z,100481.38
2022-08-18T06:08:59.188Z,100490.16
2022-08-18T06:11:26.298Z,100490.50
2022-08-18T06:13:54.941Z,100498.56
2022-08-18T06:16:57.554Z,100498.44
2022-08-18T06:20:28.443Z,100507.50
2022-08-18T06:23:12.661Z,100511.78
2022-08-18T06:26:25.809Z,100512.38
2022-08-18T06:29:38.009Z,100505.47
2022-08-18T06:32:37.591Z,100501.69
2022-08-18T06:35:45.861Z,100513.09
2022-08-18T06:38:38.972Z,100507.44
2022-08-18T06:41:41.593Z,100509.50
2022-08-18T06:44:42.877Z,100516.00
2022-08-18T06:47:53.141Z,100511.44
2022-08-18T06:50:36.496Z,100506.91
2022-08-18T06:53:27.482Z,100508.38
2022-08-18T06:55:56.329Z,100511.72
2022-08-18T06:58:31.449Z,100508.59
2022-08-18T07:01:06.873Z,100514.41
2022-08-18T07:03:36.902Z,100521.31
2022-08-18T07:06:22.279Z,100513.75
2022-08-18T07:09:24.606Z,100512.31
2022-08-18T07:12:15.497Z,100513.56
2022-08-18T07:14:50.773Z,100516.75
2022-08-18T07:17:52.815Z,100512.56
2022-08-18T07:20:25.372Z,100507.91
2022-08-18T07:23:08.083Z,100512.31
2022-08-18T07:25:46.142Z,100505.41
2022-08-18T07:28:45.215Z,100505.63
2022-08-18T07:31:48.261Z,100506.19
2022-08-18T07:34:37.248Z,100508.75
2022-08-18T07:37:31.547Z,100514.50
2022-08-18T07:40:19.813Z,100516.06
2022-08-18T07:43:39.327Z,100514.88
2022-08-18T07:46:50.952Z,100517.97
2022-08-18T07:49:26.514Z,100515.72
2022-08-18T07:52:44.098Z,100509.78
2022-08-18T07:55:36.250Z,100514.53
2022-08-18T07:58:39.328Z,100519.41
2022-08-18T08:01:34.066Z,100522.47
2022-08-18T08:04:43.746Z,100520.22
2022-08-18T08:07:38.239Z,100535.16
2022-08-18T08:10:26.831Z,100529.69
2022-08-18T08:13:51.445Z,100542.09
2022-08-18T08:16:36.799Z,100527.31
2022-08-18T08:20:08.570Z,100528.19
2022-08-18T08:23:17.507Z,100530.97
2022-08-18T08:26:19.517Z,100526.88
2022-08-18T08:29:48.966Z,100524.78
2022-08-18T08:32:34.323Z,100539.88
2022-08-18T08:35:48.745Z,100532.94
2022-08-18T08:38:42.197Z,100532.13
2022-08-18T08:41:28.445Z,100539.72
2022-08-18T08:44:33.053Z,100536.78
2022-08-18T08:47:34.554Z,100528.00
2022-08-18T08:50:27.087Z,100521.06
2022-08-18T08:53:12.586Z,100527.19
2022-08-18T08:56:00.122Z,100530.41
2022-08-18T08:58:59.149Z,100518.97
2022-08-18T09:01:58.645Z,100511.59
2022-08-18T09:05:07.640Z,100519.78
2022-08-18T09:08:15.395Z,100517.97
2022-08-18T09:11:20.903Z,100517.31
2022-08-18T09:14:41.118Z,100513.28
2022-08-18T09:17:56.011Z,100516.53
2022-08-18T09:21:16.119Z,100500.31
2022-08-18T09:23:53.501Z,100505.56
2022-08-18T09:26:50.038Z,100503.28
2022-08-18T09:30:00.890Z,100495.66
2022-08-18T09:32:29.288Z,100501.13
2022-08-18T09:35:26.979Z,100502.81
2022-08-18T09:38:35.775Z,100505.22
2022-08-18T09:41:34.187Z,100494.50
2022-08-18T09:44:18.025Z,100502.03
2022-08-18T09:47:01.249Z,100493.13
2022-08-18T09:49:28.257Z,100490.19
2022-08-18T09:55:18.218Z,100485.69
2022-08-18T09:57:48.060Z,100487.38
2022-08-18T10:00:33.513Z,100482.59
2022-08-18T10:03:13.751Z,100473.88
2022-08-18T10:06:14.883Z,100472.94
2022-08-18T10:09:36.686Z,100471.13
2022-08-18T10:12:42.510Z,100454.03
2022-08-18T10:15:33.330Z,100456.47
2022-08-18T10:18:37.616Z,100449.44
2022-08-18T10:21:28.076Z,100453.25
2022-08-18T10:26:57.397Z,100460.09
2022-08-18T10:29:30.026Z,100460.41
2022-08-18T10:31:57.495Z,100467.28
2022-08-18T10:34:52.077Z,100458.69
2022-08-18T10:37:50.702Z,100465.13
2022-08-18T10:40:26.513Z,100458.44
2022-08-18T10:43:45.444Z,100455.13
2022-08-18T10:46:25.088Z,100447.53
2022-08-18T10:49:13.391Z,100441.94
2022-08-18T10:52:05.723Z,100444.84
2022-08-18T10:55:14.415Z,100446.88
2022-08-18T10:58:43.189Z,100438.91
2022-08-18T11:01:40.730Z,100436.69
2022-08-18T11:04:36.964Z,100433.19
2022-08-18T11:07:22.075Z,100438.13
2022-08-18T11:10:12.959Z,100430.38
2022-08-18T11:13:37.777Z,100435.41
2022-08-18T11:16:41.502Z,100425.56
2022-08-18T11:19:17.120Z,100426.91
2022-08-18T11:21:52.643Z,100425.44
2022-08-18T11:24:35.498Z,100424.81
2022-08-18T11:27:32.893Z,100431.38
2022-08-18T11:30:05.842Z,100425.78
2022-08-18T11:35:51.906Z,100419.09
2022-08-18T11:38:21.086Z,100425.63
2022-08-18T11:41:13.774Z,100420.34
2022-08-18T11:43:47.450Z,100416.03
2022-08-18T11:46:28.324Z,100415.41
2022-08-18T11:49:15.718Z,100411.75
2022-08-18T11:52:19.709Z,100414.13
2022-08-18T11:55:14.632Z,100406.41
2022-08-18T11:58:00.123Z,100411.47
2022-08-18T12:00:48.738Z,100406.75
2022-08-18T12:03:42.357Z,100404.75
2022-08-18T12:06:20.676Z,100409.38
2022-08-18T12:09:36.942Z,100404.91
2022-08-18T12:12:30.512Z,100420.06
2022-08-18T12:15:22.707Z,100412.47
2022-08-18T12:17:53.716Z,100411.06
2022-08-18T12:20:23.131Z,100414.44
2022-08-18T12:22:52.013Z,100410.38
2022-08-18T12:25:25.348Z,100404.56
2022-08-18T12:27:54.533Z,100400.06
2022-08-18T12:30:21.745Z,100399.41
2022-08-18T12:32:50.775Z,100393.25
2022-08-18T12:35:29.091Z,100384.84
2022-08-18T12:38:00.483Z,100381.69
2022-08-18T12:40:33.609Z,100369.19
2022-08-18T12:43:00.768Z,100366.63
2022-08-18T12:45:31.167Z,100375.81
2022-08-18T12:48:04.095Z,100373.06
2022-08-18T12:50:39.190Z,100371.84
2022-08-18T12:53:17.678Z,100372.84
2022-08-18T12:55:56.274Z,100369.50
2022-08-18T12:58:23.293Z,100367.16
2022-08-18T13:00:51.509Z,100360.06
2022-08-18T13:03:19.438Z,100359.69
2022-08-18T13:05:47.739Z,100359.03
2022-08-18T13:08:30.311Z,100367.31
2022-08-18T13:11:14.844Z,100355.09
2022-08-18T13:13:53.285Z,100354.09
2022-08-18T13:16:38.834Z,100356.03
2022-08-18T13:19:10.748Z,100345.63
2022-08-18T13:21:41.427Z,100343.59
2022-08-18T13:24:12.766Z,100338.72
2022-08-18T13:26:46.853Z,100333.31
2022-08-18T13:29:18.535Z,100342.72
2022-08-18T13:31:55.588Z,100334.53
2022-08-18T13:34:30.008Z,100334.03
2022-08-18T13:36:57.838Z,100330.97
2022-08-18T13:39:33.823Z,100326.00
2022-08-18T13:42:26.866Z,100330.28
2022-08-18T13:44:53.181Z,100331.44
2022-08-18T13:47:22.624Z,100331.31
2022-08-18T13:49:58.130Z,100328.69
2022-08-18T13:52:34.493Z,100323.50
2022-08-18T13:55:08.033Z,100322.09
2022-08-18T13:57:38.620Z,100317.03
2022-08-18T14:00:18.245Z,100307.63
2022-08-18T14:02:53.909Z,100315.13
2022-08-18T14:05:22.165Z,100305.59
2022-08-18T14:08:05.529Z,100296.31
2022-08-18T14:10:33.406Z,100299.13
2022-08-18T14:13:20.325Z,100295.66
2022-08-18T14:15:55.997Z,100296.78
2022-08-18T14:18:29.220Z,100292.19
2022-08-18T14:21:23.248Z,100288.59
2022-08-18T14:24:10.215Z,100283.91
2022-08-18T14:26:51.021Z,100278.63
2022-08-18T14:29:46.294Z,100287.41
2022-08-18T14:32:07.982Z,100280.13
2022-08-18T14:34:36.952Z,100287.84
2022-08-18T14:37:04.225Z,100297.38
2022-08-18T14:39:31.329Z,100293.97
2022-08-18T14:41:58.608Z,100296.25
2022-08-18T14:44:31.882Z,100299.72
2022-08-18T14:46:59.899Z,100307.09
2022-08-18T14:49:29.257Z,100305.00
2022-08-18T14:52:02.245Z,100309.84
2022-08-18T14:54:32.379Z,100305.69
2022-08-18T14:57:02.655Z,100303.06
2022-08-18T14:59:37.599Z,100317.06
2022-08-18T15:02:13.107Z,100326.13
2022-08-18T15:04:52.917Z,100327.66
2022-08-18T15:07:26.257Z,100324.06
2022-08-18T15:10:15.188Z,100317.06
2022-08-18T15:12:42.035Z,100316.94
2022-08-18T15:15:17.714Z,100305.78
2022-08-18T15:17:51.484Z,100319.66
2022-08-18T15:20:29.486Z,100325.09
2022-08-18T15:23:23.442Z,100325.09
2022-08-18T15:25:56.541Z,100326.38
2022-08-18T15:28:27.190Z,100324.78
2022-08-18T15:33:42.123Z,100329.91
2022-08-18T15:36:10.356Z,100328.66
2022-08-18T15:38:43.583Z,100326.72
2022-08-18T15:41:28.432Z,100316.22
2022-08-18T15:43:58.592Z,100318.63
2022-08-18T15:46:25.608Z,100316.03
2022-08-18T15:48:54.744Z,100316.50
2022-08-18T15:51:21.850Z,100321.16
2022-08-18T15:53:49.062Z,100323.06
2022-08-18T15:56:26.021Z,100323.38
2022-08-18T15:58:54.021Z,100321.78
2022-08-18T16:01:30.595Z,100331.50
2022-08-18T16:04:01.424Z,100329.91
2022-08-18T16:06:32.384Z,100321.94
2022-08-18T16:09:01.907Z,100326.88
2022-08-18T16:11:30.558Z,100328.78
2022-08-18T16:13:59.295Z,100335.13
2022-08-18T16:16:29.124Z,100339.97
2022-08-18T16:19:06.744Z,100349.50
2022-08-18T16:21:37.950Z,100357.84
2022-08-18T16:24:05.927Z,100371.03
2022-08-18T16:26:33.111Z,100381.66
2022-08-18T16:29:01.996Z,100378.28
2022-08-18T16:31:29.779Z,100375.63
2022-08-18T16:33:59.069Z,100387.13
2022-08-18T16:36:26.515Z,100386.88
2022-08-18T16:38:56.178Z,100388.38
2022-08-18T16:41:26.825Z,100383.22
2022-08-18T16:43:54.579Z,100380.66
2022-08-18T16:46:27.440Z,100375.22
2022-08-18T16:48:58.666Z,100380.06
2022-08-18T16:51:29.371Z,100379.56
2022-08-18T16:53:56.860Z,100390.59
2022-08-18T16:56:31.180Z,100394.38
2022-08-18T16:59:16.929Z,100397.22
2022-08-18T17:02:02.796Z,100391.28
2022-08-18T17:04:35.828Z,100391.41
2022-08-18T17:07:06.675Z,100391.09
2022-08-18T17:09:36.014Z,100380.53
2022-08-18T17:12:05.199Z,100372.53
2022-08-18T17:14:33.619Z,100370.22
2022-08-18T17:17:01.437Z,100371.09
2022-08-18T17:19:35.268Z,100372.88
2022-08-18T17:22:06.385Z,100360.84
2022-08-18T17:24:33.603Z,100359.56
2022-08-18T17:27:26.076Z,100365.28
2022-08-18T17:30:11.557Z,100359.03
2022-08-18T17:33:08.566Z,100352.75
2022-08-18T17:35:44.478Z,100382.75
2022-08-18T17:38:34.314Z,100377.13
2022-08-18T17:41:05.186Z,100376.94
2022-08-18T17:46:27.981Z,100380.97
2022-08-18T17:50:27.287Z,100383.06
2022-08-18T17:53:00.517Z,100386.34
2022-08-18T17:55:53.585Z,100399.88
2022-08-18T17:58:46.637Z,100400.78
2022-08-18T18:01:15.439Z,100403.69
2022-08-18T18:03:44.868Z,100401.66
2022-08-18T18:06:35.218Z,100398.16
2022-08-18T18:09:28.516Z,100391.25
2022-08-18T18:11:55.918Z,100397.28
2022-08-18T18:14:39.598Z,100391.59
2022-08-18T18:17:25.119Z,100394.38
2022-08-18T18:20:15.635Z,100394.84
2022-08-18T18:22:45.802Z,100409.47
2022-08-18T18:25:34.624Z,100407.53
2022-08-18T18:28:02.562Z,100409.16
2022-08-18T18:30:29.987Z,100415.25
2022-08-18T18:33:13.536Z,100412.75
2022-08-18T18:35:59.581Z,100406.31
2022-08-18T18:38:49.047Z,100399.88
2022-08-18T18:41:28.375Z,100401.50
2022-08-18T18:44:10.421Z,100403.97
2022-08-18T18:47:07.437Z,100401.94
2022-08-18T18:50:27.659Z,100390.69
2022-08-18T18:54:08.428Z,100389.44
2022-08-18T18:56:49.518Z,100392.66
2022-08-18T19:00:18.173Z,100394.63
2022-08-18T19:03:23.221Z,100406.34
2022-08-18T19:06:13.197Z,100414.78
2022-08-18T19:09:20.811Z,100425.31
2022-08-18T19:12:23.371Z,100430.59
2022-08-18T19:15:15.277Z,100427.34
2022-08-18T19:18:33.835Z,100416.91
2022-08-18T19:22:03.699Z,100421.31
2022-08-18T19:24:25.549Z,100427.81
2022-08-18T19:27:03.030Z,100433.50
2022-08-18T19:29:43.510Z,100440.38
2022-08-18T19:32:36.808Z,100439.53
2022-08-18T19:35:13.647Z,100436.69
2022-08-18T19:38:04.269Z,100431.44
2022-08-18T19:40:51.866Z,100432.63
2022-08-18T19:43:36.023Z,100445.19
2022-08-18T19:46:20.957Z,100442.75
2022-08-18T19:49:42.719Z,100428.69
2022-08-18T19:53:12.466Z,100409.38
2022-08-18T19:56:10.353Z,100398.09
2022-08-18T19:59:40.400Z,100404.56
2022-08-18T20:03:14.712Z,100431.16
2022-08-18T20:06:33.643Z,100444.81
2022-08-18T20:09:42.776Z,100439.63
2022-08-18T20:13:20.089Z,100441.25
2022-08-18T20:16:02.074Z,100434.88
2022-08-18T20:18:50.241Z,100424.94
2022-08-18T20:21:17.369Z,100419.75
2022-08-18T20:23:56.806Z,100423.03
2022-08-18T20:26:38.734Z,100417.00
2022-08-18T20:29:39.723Z,100421.88
2022-08-18T20:32:32.040Z,100425.88
2022-08-18T20:35:32.562Z,100421.06
2022-08-18T20:38:38.794Z,100422.69
2022-08-18T20:41:28.739Z,100415.84
2022-08-18T20:44:29.321Z,100421.06
2022-08-18T20:47:27.334Z,100424.28
2022-08-18T20:50:31.498Z,100417.03
2022-08-18T20:54:02.897Z,100406.97
2022-08-18T20:56:59.168Z,100400.53
2022-08-18T21:00:13.352Z,100396.47
2022-08-18T21:02:49.758Z,100394.06
2022-08-18T21:05:39.197Z,100391.25
2022-08-18T21:08:16.539Z,100388.41
2022-08-18T21:10:59.526Z,100403.31
2022-08-18T21:13:41.574Z,100404.94
2022-08-18T21:16:38.149Z,100402.94
2022-08-18T21:19:25.991Z,100399.31
2022-08-18T21:22:01.440Z,100398.09
2022-08-18T21:24:45.196Z,100394.06
2022-08-18T21:27:32.514Z,100396.88
2022-08-18T21:30:15.590Z,100396.50
2022-08-18T21:32:47.144Z,100400.53
2022-08-18T21:35:38.249Z,100388.81
2022-08-18T21:38:13.219Z,100386.03
2022-08-18T21:40:50.844Z,100390.06
2022-08-18T21:43:49.532Z,100384.78
2022-08-18T21:46:31.134Z,100389.25
2022-08-18T21:49:04.112Z,100386.81
2022-08-18T21:51:48.743Z,100396.91
2022-08-18T21:54:30.248Z,100398.09
2022-08-18T21:57:24.784Z,100395.69
2022-08-18T22:00:29.755Z,100394.88
2022-08-18T22:03:24.888Z,100389.25
2022-08-18T22:06:21.833Z,100382.41
2022-08-18T22:09:42.446Z,100391.66
2022-08-18T22:12:53.561Z,100388.84
2022-08-18T22:15:48.730Z,100385.22
2022-08-18T22:18:18.690Z,100397.28
2022-08-18T22:20:59.786Z,100397.31
2022-08-18T22:24:05.959Z,100399.72
2022-08-18T22:26:38.464Z,100426.31
2022-08-18T22:29:33.325Z,100429.13
2022-08-18T22:32:04.094Z,100437.19
2022-08-18T22:34:34.624Z,100439.59
2022-08-18T22:37:19.940Z,100431.94
2022-08-18T22:40:12.495Z,100430.72
2022-08-18T22:42:40.725Z,100422.69
2022-08-18T22:45:13.681Z,100417.44
2022-08-18T22:47:43.656Z,100421.06
2022-08-18T22:50:14.367Z,100418.25
2022-08-18T22:52:49.760Z,100416.59
2022-08-18T22:55:21.830Z,100420.59
2022-08-18T22:57:55.654Z,100431.47
2022-08-18T23:00:25.355Z,100441.97
2022-08-18T23:02:55.146Z,100446.41
2022-08-18T23:05:23.372Z,100442.78
2022-08-18T23:07:50.983Z,100427.47
2022-08-18T23:10:18.732Z,100416.63
2022-08-18T23:12:49.324Z,100422.66
2022-08-18T23:15:19.199Z,100431.94
2022-08-18T23:17:46.449Z,100433.53
2022-08-18T23:20:18.352Z,100425.47
2022-08-18T23:22:48.273Z,100411.75
2022-08-18T23:25:15.853Z,100415.00
2022-08-18T23:27:43.351Z,100431.53
2022-08-18T23:30:11.262Z,100427.50
2022-08-18T23:32:38.334Z,100422.66
2022-08-18T23:35:06.180Z,100424.66
2022-08-18T23:37:33.340Z,100425.44
2022-08-18T23:40:00.639Z,100417.78
2022-08-18T23:42:28.125Z,100428.28
2022-08-18T23:45:04.400Z,100432.72
2022-08-18T23:47:31.888Z,100433.13
2022-08-18T23:49:59.585Z,100428.69
2022-08-18T23:52:26.644Z,100431.50
2022-08-18T23:54:54.239Z,100419.38
2022-08-18T23:57:21.368Z,100432.69
2022-08-18T23:59:48.715Z,100422.22
